Time;durP1;ratioP1;P1;durP2;ratioP2;P2;SDS_P1;SDS_P2;PMS_P1;PMS_P2;Temp;Humidity;BMP_temperature;BMP_pressure;BME280_temperature;BME280_humidity;BME280_pressure;Samples;Min_cycle;Max_cycle;Signal;HPM_P1;HPM_P2
2022/04/22 00:01:45;;;;;;;;;;;;;;;;;;5050743;28;1174;-70
2022/04/22 00:04:12;;;;;;;;;;;;;;;;;;5048380;28;1413;-71
2022/04/22 00:06:38;;;;;;;;;;;;;;;;;;5050374;28;1922;-71
2022/04/22 00:09:04;;;;;;;;;;;;;;;;;;5048961;28;1362;-70
2022/04/22 00:11:30;;;;;;;;;;;;;;;;;;5049211;28;1470;-68
2022/04/22 00:13:57;;;;;;;;;;;;;;;;;;5050288;28;1399;-69
2022/04/22 00:16:25;;;;;;;;;;;;;;;;;;5032867;28;1595;-69
2022/04/22 00:18:51;;;;;;;;;;;;;;;;;;5050023;28;1413;-70
2022/04/22 00:21:17;;;;;;;;;;;;;;;;;;5050767;28;1153;-69
2022/04/22 00:23:43;;;;;;;;;;;;;;;;;;5045267;28;1427;-69
2022/04/22 00:26:10;;;;;;;;;;;;;;;;;;5049749;28;1973;-69
2022/04/22 00:28:37;;;;;;;;;;;;;;;;;;5050120;28;1409;-70
2022/04/22 00:31:03;;;;;;;;;;;;;;;;;;5050623;28;1169;-70
2022/04/22 00:33:30;;;;;;;;;;;;;;;;;;5049214;28;1401;-70
2022/04/22 00:35:57;;;;;;;;;;;;;;;;;;5048815;28;1385;-70
2022/04/22 00:38:23;;;;;;;;;;;;;;;;;;5038504;28;1344;-70
2022/04/22 00:40:49;;;;;;;;;;;;;;;;;;5046808;28;1922;-70
2022/04/22 00:43:16;;;;;;;;;;;;;;;;;;5050646;28;1396;-70
2022/04/22 00:45:42;;;;;;;;;;;;;;;;;;5047741;28;1977;-70
2022/04/22 00:48:09;;;;;;;;;;;;;;;;;;5049124;28;1490;-70
2022/04/22 00:50:36;;;;;;;;;;;;;;;;;;5050578;28;1439;-70
2022/04/22 00:53:02;;;;;;;;;;;;;;;;;;5050737;28;1416;-70
2022/04/22 00:55:28;;;;;;;;;;;;;;;;;;5047032;28;1511;-71
2022/04/22 00:57:55;;;;;;;;;;;;;;;;;;5046415;28;795;-69
2022/04/22 01:00:21;;;;;;;;;;;;;;;;;;5030545;28;1099;-69
2022/04/22 01:02:47;;;;;;;;;;;;;;;;;;5012865;28;1193;-70
2022/04/22 01:10:42;;;;;;;;;;;;;;;;;;5070582;28;1088;-70
2022/04/22 01:13:09;;;;;;;;;;;;;;;;;;5069361;28;911;-70
2022/04/22 01:15:35;;;;;;;;;;;;;;;;;;5070790;28;1262;-70
2022/04/22 01:18:01;;;;;;;;;;;;;;;;;;5070487;28;1306;-69
2022/04/22 01:20:28;;;;;;;;;;;;;;;;;;5069738;28;1437;-70
2022/04/22 01:22:55;;;;;;;;;;;;;;;;;;5069468;28;1378;-70
2022/04/22 01:25:21;;;;;;;;;;;;;;;;;;5050064;28;1917;-70
2022/04/22 01:27:50;;;;;;;;;;;;;;;;;;5070820;28;1486;-70
2022/04/22 01:30:16;;;;;;;;;;;;;;;;;;5075258;28;1079;-70
2022/04/22 01:32:45;;;;;;;;;;;;;;;;;;5075066;28;1478;-70
2022/04/22 01:35:11;;;;;;;;;;;;;;;;;;5057485;28;1084;-71
2022/04/22 01:37:37;;;;;;;;;;;;;;;;;;5074920;28;1384;-70
2022/04/22 01:40:05;;;;;;;;;;;;;;;;;;5075131;28;1099;-70
2022/04/22 01:42:31;;;;;;;;;;;;;;;;;;5075197;28;1067;-70
2022/04/22 01:44:58;;;;;;;;;;;;;;;;;;5074182;28;1453;-70
2022/04/22 01:47:24;;;;;;;;;;;;;;;;;;5073981;28;1954;-70
2022/04/22 01:49:50;;;;;;;;;;;;;;;;;;5074132;28;1421;-70
2022/04/22 01:52:16;;;;;;;;;;;;;;;;;;5073523;28;1224;-70
2022/04/22 01:54:43;;;;;;;;;;;;;;;;;;5071654;28;1779;-70
2022/04/22 01:57:10;;;;;;;;;;;;;;;;;;5066006;28;1318;-70
2022/04/22 01:59:36;;;;;;;;;;;;;;;;;;5063361;28;1454;-70
2022/04/22 02:02:03;;;;;;;;;;;;;;;;;;5074566;28;1314;-70
2022/04/22 02:04:29;;;;;;;;;;;;;;;;;;5072199;28;1416;-69
2022/04/22 02:06:55;;;;;;;;;;;;;;;;;;5061903;28;1977;-71
2022/04/22 02:09:22;;;;;;;;;;;;;;;;;;5066128;28;1209;-69
2022/04/22 02:11:48;;;;;;;;;;;;;;;;;;5072102;28;1454;-70
2022/04/22 02:14:15;;;;;;;;;;;;;;;;;;5049121;28;1474;-70
2022/04/22 02:16:42;;;;;;;;;;;;;;;;;;5069687;28;1494;-70
2022/04/22 02:19:08;;;;;;;;;;;;;;;;;;5068439;28;1363;-70
2022/04/22 02:21:34;;;;;;;;;;;;;;;;;;5068003;28;1197;-69
2022/04/22 02:24:00;;;;;;;;;;;;;;;;;;5063553;28;1490;-70
2022/04/22 02:26:26;;;;;;;;;;;;;;;;;;5062222;28;1974;-70
2022/04/22 02:28:52;;;;;;;;;;;;;;;;;;5064629;28;1378;-70
2022/04/22 02:31:20;;;;;;;;;;;;;;;;;;5071711;28;1509;-70
2022/04/22 02:33:46;;;;;;;;;;;;;;;;;;5072098;28;1424;-70
2022/04/22 02:36:15;;;;;;;;;;;;;;;;;;5071422;28;1354;-69
2022/04/22 02:38:41;;;;;;;;;;;;;;;;;;5071769;28;1448;-70
2022/04/22 02:46:36;;;;;;;;;;;;;;;;;;5073015;28;1918;-70
2022/04/22 02:49:03;;;;;;;;;;;;;;;;;;5071334;28;1366;-70
2022/04/22 02:51:30;;;;;;;;;;;;;;;;;;5071779;28;1358;-70
2022/04/22 02:53:56;;;;;;;;;;;;;;;;;;5071013;28;1374;-70
2022/04/22 02:56:22;;;;;;;;;;;;;;;;;;5072553;28;1510;-70
2022/04/22 02:58:48;;;;;;;;;;;;;;;;;;5078350;28;1310;-70
2022/04/22 03:01:15;;;;;;;;;;;;;;;;;;5076363;28;1427;-70
2022/04/22 03:03:43;;;;;;;;;;;;;;;;;;5072577;28;1485;-70
2022/04/22 03:06:09;;;;;;;;;;;;;;;;;;5061392;28;1958;-70
2022/04/22 03:08:35;;;;;;;;;;;;;;;;;;5067354;28;1387;-70
2022/04/22 03:11:02;;;;;;;;;;;;;;;;;;5068602;28;1494;-69
2022/04/22 03:13:28;;;;;;;;;;;;;;;;;;5066308;28;1158;-70
2022/04/22 03:15:54;;;;;;;;;;;;;;;;;;5070793;28;1828;-70
2022/04/22 03:18:21;;;;;;;;;;;;;;;;;;5070812;28;1408;-70
2022/04/22 03:20:48;;;;;;;;;;;;;;;;;;5059277;28;1439;-70
2022/04/22 03:23:14;;;;;;;;;;;;;;;;;;5061782;28;1478;-69
2022/04/22 03:25:41;;;;;;;;;;;;;;;;;;5065700;28;1980;-70
2022/04/22 03:28:07;;;;;;;;;;;;;;;;;;5051750;28;1803;-70
2022/04/22 03:30:34;;;;;;;;;;;;;;;;;;5069686;28;1371;-70
2022/04/22 03:33:00;;;;;;;;;;;;;;;;;;5071046;28;1437;-70
2022/04/22 03:35:27;;;;;;;;;;;;;;;;;;5070880;28;1384;-70
2022/04/22 03:37:55;;;;;;;;;;;;;;;;;;5070848;28;1401;-69
2022/04/22 03:40:21;;;;;;;;;;;;;;;;;;5060574;28;1687;-70
2022/04/22 03:42:47;;;;;;;;;;;;;;;;;;5067452;28;1392;-70
2022/04/22 03:45:13;;;;;;;;;;;;;;;;;;5071472;28;1133;-71
2022/04/22 03:47:40;;;;;;;;;;;;;;;;;;5073667;28;1969;-71
2022/04/22 03:50:06;;;;;;;;;;;;;;;;;;5062412;28;1576;-71
2022/04/22 03:52:33;;;;;;;;;;;;;;;;;;5043013;28;1773;-69
2022/04/22 03:55:00;;;;;;;;;;;;;;;;;;5068716;28;1629;-69
2022/04/22 04:00:10;;;;;;;;;;;;;;;;;;5060967;28;1574;-70
2022/04/22 04:02:37;;;;;;;;;;;;;;;;;;5070577;28;1596;-70
2022/04/22 04:05:03;;;;;;;;;;;;;;;;;;5060841;28;1481;-70
2022/04/22 04:07:29;;;;;;;;;;;;;;;;;;5060833;28;1973;-70
2022/04/22 04:18:08;;;;;;;;;;;;;;;;;;5044257;28;1419;-70
2022/04/22 04:23:18;;;;;;;;;;;;;;;;;;5061733;28;1401;-70
2022/04/22 04:25:46;;;;;;;;;;;;;;;;;;5054623;28;1452;-70
2022/04/22 04:28:15;;;;;;;;;;;;;;;;;;5069428;28;1979;-70
2022/04/22 04:30:41;;;;;;;;;;;;;;;;;;5070651;28;1228;-70
2022/04/22 04:33:08;;;;;;;;;;;;;;;;;;5070911;28;782;-70
2022/04/22 04:35:35;;;;;;;;;;;;;;;;;;5070732;28;1127;-70
2022/04/22 04:38:01;;;;;;;;;;;;;;;;;;5070817;28;1403;-70
2022/04/22 04:40:27;;;;;;;;;;;;;;;;;;5070797;28;1167;-70
2022/04/22 04:42:54;;;;;;;;;;;;;;;;;;5070648;28;936;-70
2022/04/22 04:45:21;;;;;;;;;;;;;;;;;;5070729;28;882;-70
2022/04/22 04:47:48;;;;;;;;;;;;;;;;;;5070174;28;1976;-70
2022/04/22 04:50:14;;;;;;;;;;;;;;;;;;5070764;28;1039;-70
2022/04/22 04:52:41;;;;;;;;;;;;;;;;;;5069318;28;1733;-70
2022/04/22 04:55:08;;;;;;;;;;;;;;;;;;5069530;28;1194;-70
2022/04/22 04:57:35;;;;;;;;;;;;;;;;;;5070315;28;1403;-70
2022/04/22 05:00:01;;;;;;;;;;;;;;;;;;5075026;28;1182;-70
2022/04/22 05:02:29;;;;;;;;;;;;;;;;;;5079781;28;1273;-70
2022/04/22 05:04:55;;;;;;;;;;;;;;;;;;5080551;28;1308;-70
2022/04/22 05:07:21;;;;;;;;;;;;;;;;;;5079597;28;1914;-70
2022/04/22 05:09:47;;;;;;;;;;;;;;;;;;5083982;28;1294;-70
2022/04/22 05:12:13;;;;;;;;;;;;;;;;;;5094415;28;751;-70
2022/04/22 05:14:40;;;;;;;;;;;;;;;;;;5094646;28;839;-70
2022/04/22 05:17:06;;;;;;;;;;;;;;;;;;5094217;28;1393;-71
2022/04/22 05:19:34;;;;;;;;;;;;;;;;;;5094541;28;960;-70
2022/04/22 05:22:00;;;;;;;;;;;;;;;;;;5094416;28;1063;-71
2022/04/22 05:24:26;;;;;;;;;;;;;;;;;;5094799;28;971;-71
2022/04/22 05:26:52;;;;;;;;;;;;;;;;;;5093756;28;1918;-70
2022/04/22 05:34:48;;;;;;;;;;;;;;;;;;5094378;28;1151;-70
2022/04/22 05:37:14;;;;;;;;;;;;;;;;;;5094079;28;1379;-71
2022/04/22 05:39:43;;;;;;;;;;;;;;;;;;5094133;28;1067;-70
2022/04/22 05:42:09;;;;;;;;;;;;;;;;;;5094108;28;1051;-71
2022/04/22 05:44:35;;;;;;;;;;;;;;;;;;5094136;28;901;-69
2022/04/22 05:47:01;;;;;;;;;;;;;;;;;;5093980;28;1917;-70
2022/04/22 05:49:27;;;;;;;;;;;;;;;;;;5094311;28;846;-70
2022/04/22 05:51:55;;;;;;;;;;;;;;;;;;5075483;28;1286;-70
2022/04/22 05:54:21;;;;;;;;;;;;;;;;;;5076689;28;1186;-70
2022/04/22 05:56:47;;;;;;;;;;;;;;;;;;5094146;28;1311;-70
2022/04/22 05:59:13;;;;;;;;;;;;;;;;;;5094103;28;1150;-70
2022/04/22 06:01:39;;;;;;;;;;;;;;;;;;5093835;28;791;-70
2022/04/22 06:04:06;;;;;;;;;;;;;;;;;;5093926;28;1063;-70
2022/04/22 06:06:32;;;;;;;;;;;;;;;;;;5093858;28;1976;-70
2022/04/22 06:11:43;;;;;;;;;;;;;;;;;;5093807;28;1018;-70
2022/04/22 06:14:10;;;;;;;;;;;;;;;;;;5097598;28;1071;-70
2022/04/22 06:16:37;;;;;;;;;;;;;;;;;;5100003;28;972;-70
2022/04/22 06:19:04;;;;;;;;;;;;;;;;;;5100380;28;1143;-70
2022/04/22 06:21:30;;;;;;;;;;;;;;;;;;5093621;28;1142;-70
2022/04/22 06:23:56;;;;;;;;;;;;;;;;;;5093917;28;1064;-70
2022/04/22 06:26:23;;;;;;;;;;;;;;;;;;5074974;28;1040;-70
2022/04/22 06:28:50;;;;;;;;;;;;;;;;;;5093219;28;1988;-70
2022/04/22 06:31:16;;;;;;;;;;;;;;;;;;5089979;28;1158;-69
2022/04/22 06:33:42;;;;;;;;;;;;;;;;;;5083615;28;1222;-70
2022/04/22 06:36:12;;;;;;;;;;;;;;;;;;5075449;28;1274;-70
2022/04/22 06:38:39;;;;;;;;;;;;;;;;;;5072793;28;1428;-70
2022/04/22 06:46:37;;;;;;;;;;;;;;;;;;5054573;28;1993;-70
2022/04/22 06:49:03;;;;;;;;;;;;;;;;;;5072598;28;1123;-70
2022/04/22 06:51:30;;;;;;;;;;;;;;;;;;5072600;28;1004;-70
2022/04/22 06:53:56;;;;;;;;;;;;;;;;;;5072497;28;1055;-71
2022/04/22 06:56:23;;;;;;;;;;;;;;;;;;5072460;28;786;-70
2022/04/22 06:58:49;;;;;;;;;;;;;;;;;;5055325;28;1455;-69
2022/04/22 07:01:17;;;;;;;;;;;;;;;;;;5073289;28;783;-71
2022/04/22 07:03:43;;;;;;;;;;;;;;;;;;5072768;28;1067;-71
2022/04/22 07:06:10;;;;;;;;;;;;;;;;;;5054612;28;1147;-71
2022/04/22 07:08:36;;;;;;;;;;;;;;;;;;5043749;22;2087;-71
2022/04/22 07:11:03;;;;;;;;;;;;;;;;;;4988722;28;1101;-72
2022/04/22 07:13:30;;;;;;;;;;;;;;;;;;4989297;28;1305;-71
2022/04/22 07:15:56;;;;;;;;;;;;;;;;;;4972636;28;1233;-71
2022/04/22 07:18:24;;;;;;;;;;;;;;;;;;4986688;28;1472;-72
2022/04/22 07:20:50;;;;;;;;;;;;;;;;;;4971884;28;1208;-72
2022/04/22 07:23:17;;;;;;;;;;;;;;;;;;4988196;28;873;-70
2022/04/22 07:25:45;;;;;;;;;;;;;;;;;;4981319;28;1120;-72
2022/04/22 07:28:12;;;;;;;;;;;;;;;;;;4968902;28;1914;-71
2022/04/22 07:30:39;;;;;;;;;;;;;;;;;;4969018;28;997;-71
2022/04/22 07:33:06;;;;;;;;;;;;;;;;;;4969170;28;935;-71
2022/04/22 07:35:34;;;;;;;;;;;;;;;;;;4969695;28;1123;-70
2022/04/22 07:38:01;;;;;;;;;;;;;;;;;;4968410;28;1296;-72
2022/04/22 07:40:28;;;;;;;;;;;;;;;;;;4969611;28;1036;-71
2022/04/22 07:48:22;;;;;;;;;;;;;;;;;;4969051;28;1931;-72
2022/04/22 07:50:51;;;;;;;;;;;;;;;;;;4969314;28;902;-71
2022/04/22 07:53:17;;;;;;;;;;;;;;;;;;4969595;28;873;-72
2022/04/22 07:55:43;;;;;;;;;;;;;;;;;;4969546;28;938;-73
2022/04/22 07:58:10;;;;;;;;;;;;;;;;;;4951607;28;1349;-73
2022/04/22 08:00:37;;;;;;;;;;;;;;;;;;4969072;28;799;-72
2022/04/22 08:03:03;;;;;;;;;;;;;;;;;;4969428;28;900;-71
2022/04/22 08:05:29;;;;;;;;;;;;;;;;;;4968925;28;772;-72
2022/04/22 08:07:57;;;;;;;;;;;;;;;;;;4968199;28;1906;-72
2022/04/22 08:10:23;;;;;;;;;;;;;;;;;;4969344;28;886;-72
2022/04/22 08:12:50;;;;;;;;;;;;;;;;;;4969296;28;1123;-71
2022/04/22 08:15:16;;;;;;;;;;;;;;;;;;4969338;28;1107;-72
2022/04/22 08:17:43;;;;;;;;;;;;;;;;;;4951396;28;1429;-71
2022/04/22 08:20:10;;;;;;;;;;;;;;;;;;4968732;28;1116;-71
2022/04/22 08:22:36;;;;;;;;;;;;;;;;;;4968666;28;811;-71
2022/04/22 08:25:04;;;;;;;;;;;;;;;;;;4968916;28;918;-71
2022/04/22 08:27:30;;;;;;;;;;;;;;;;;;4968639;28;1923;-72
2022/04/22 08:29:57;;;;;;;;;;;;;;;;;;4951340;28;1475;-72
2022/04/22 08:32:24;;;;;;;;;;;;;;;;;;4968843;28;1190;-71
2022/04/22 08:34:51;;;;;;;;;;;;;;;;;;4951546;28;1131;-72
2022/04/22 08:37:17;;;;;;;;;;;;;;;;;;4950906;28;1276;-71
2022/04/22 08:39:44;;;;;;;;;;;;;;;;;;4971856;28;1405;-71
2022/04/22 08:42:12;;;;;;;;;;;;;;;;;;4972158;28;1056;-72
2022/04/22 08:44:39;;;;;;;;;;;;;;;;;;4972104;28;1072;-71
2022/04/22 08:50:02;;;;;;;;;;;;;;;;;;4971938;28;1377;-72
2022/04/22 08:52:31;;;;;;;;;;;;;;;;;;4971858;28;886;-71
2022/04/22 08:54:58;;;;;;;;;;;;;;;;;;4972387;28;957;-72
2022/04/22 08:57:25;;;;;;;;;;;;;;;;;;4971792;28;925;-72
2022/04/22 08:59:51;;;;;;;;;;;;;;;;;;4971761;28;1306;-71
2022/04/22 09:02:18;;;;;;;;;;;;;;;;;;4971484;28;890;-71
2022/04/22 09:04:44;;;;;;;;;;;;;;;;;;4971770;28;1243;-71
2022/04/22 09:07:12;;;;;;;;;;;;;;;;;;4971304;28;1279;-72
2022/04/22 09:09:38;;;;;;;;;;;;;;;;;;4971019;28;1919;-71
2022/04/22 09:12:08;;;;;;;;;;;;;;;;;;4952607;29;1056;-72
2022/04/22 09:14:36;;;;;;;;;;;;;;;;;;4935302;29;1168;-71
2022/04/22 09:17:03;;;;;;;;;;;;;;;;;;4952338;29;1208;-72
2022/04/22 09:19:34;;;;;;;;;;;;;;;;;;4952104;28;1448;-71
2022/04/22 09:22:01;;;;;;;;;;;;;;;;;;4956475;28;1464;-70
2022/04/22 09:24:27;;;;;;;;;;;;;;;;;;4971763;28;1307;-71
2022/04/22 09:27:03;;;;;;;;;;;;;;;;;;4954174;28;1454;-71
2022/04/22 09:29:29;;;;;;;;;;;;;;;;;;4971621;28;1919;-72
2022/04/22 09:31:57;;;;;;;;;;;;;;;;;;4971541;28;1401;-72
2022/04/22 09:34:32;;;;;;;;;;;;;;;;;;4954130;28;1358;-72
2022/04/22 09:42:46;;;;;;;;;;;;;;;;;;4981367;28;1297;-73
2022/04/22 09:45:13;;;;;;;;;;;;;;;;;;4978399;28;1221;-72
2022/04/22 09:47:41;;;;;;;;;;;;;;;;;;4970849;28;1974;-72
2022/04/22 09:50:10;;;;;;;;;;;;;;;;;;4970597;28;795;-72
2022/04/22 09:52:38;;;;;;;;;;;;;;;;;;4974891;28;1986;-71
2022/04/22 09:55:06;;;;;;;;;;;;;;;;;;4968460;28;1357;-71
2022/04/22 09:57:49;;;;;;;;;;;;;;;;;;4981928;28;1232;-71
2022/04/22 10:00:16;;;;;;;;;;;;;;;;;;4990784;28;850;-72
2022/04/22 10:02:43;;;;;;;;;;;;;;;;;;4991013;28;925;-71
2022/04/22 10:05:10;;;;;;;;;;;;;;;;;;4990622;28;909;-72
2022/04/22 10:07:36;;;;;;;;;;;;;;;;;;4989980;28;1977;-70
2022/04/22 10:10:03;;;;;;;;;;;;;;;;;;4990119;28;1350;-71
2022/04/22 10:12:31;;;;;;;;;;;;;;;;;;4990238;28;1021;-72
2022/04/22 10:14:58;;;;;;;;;;;;;;;;;;4990602;28;786;-72
2022/04/22 10:17:24;;;;;;;;;;;;;;;;;;4972348;28;1164;-72
2022/04/22 10:19:51;;;;;;;;;;;;;;;;;;4990108;28;1316;-72
2022/04/22 10:22:18;;;;;;;;;;;;;;;;;;4989866;28;1252;-71
2022/04/22 10:24:44;;;;;;;;;;;;;;;;;;4990410;28;1084;-73
2022/04/22 10:27:10;;;;;;;;;;;;;;;;;;4990036;28;842;-73
2022/04/22 10:29:37;;;;;;;;;;;;;;;;;;4989731;28;1918;-72
2022/04/22 10:32:04;;;;;;;;;;;;;;;;;;4989904;28;972;-70
2022/04/22 10:34:37;;;;;;;;;;;;;;;;;;4990018;28;1064;-71
2022/04/22 10:37:05;;;;;;;;;;;;;;;;;;4990037;28;794;-73
2022/04/22 10:39:34;;;;;;;;;;;;;;;;;;4989553;28;1382;-72
2022/04/22 10:42:01;;;;;;;;;;;;;;;;;;4989633;28;787;-72
2022/04/22 10:47:16;;;;;;;;;;;;;;;;;;4989800;28;940;-71
2022/04/22 10:49:43;;;;;;;;;;;;;;;;;;4989623;28;1993;-72
2022/04/22 10:52:19;;;;;;;;;;;;;;;;;;4989696;28;802;-72
2022/04/22 10:55:04;;;;;;;;;;;;;;;;;;4989628;28;865;-72
2022/04/22 10:57:32;;;;;;;;;;;;;;;;;;4956351;28;1056;-71
2022/04/22 11:00:04;;;;;;;;;;;;;;;;;;4950876;28;1321;-73
2022/04/22 11:02:32;;;;;;;;;;;;;;;;;;4950227;29;897;-71
2022/04/22 11:05:16;;;;;;;;;;;;;;;;;;4962743;28;2283;-72
2022/04/22 11:07:56;;;;;;;;;;;;;;;;;;4968353;28;2017;-71
2022/04/22 11:10:23;;;;;;;;;;;;;;;;;;4967032;28;1747;-71
2022/04/22 11:12:52;;;;;;;;;;;;;;;;;;4967961;28;1726;-71
2022/04/22 11:15:33;;;;;;;;;;;;;;;;;;5001099;28;2103;-72
2022/04/22 11:17:59;;;;;;;;;;;;;;;;;;4985442;28;1755;-71
2022/04/22 11:20:25;;;;;;;;;;;;;;;;;;4996047;28;1058;-70
2022/04/22 11:22:57;;;;;;;;;;;;;;;;;;5071337;28;1079;-71
2022/04/22 11:25:24;;;;;;;;;;;;;;;;;;4971473;28;2072;-71
2022/04/22 11:27:50;;;;;;;;;;;;;;;;;;4974574;28;1760;-72
2022/04/22 11:30:17;;;;;;;;;;;;;;;;;;4966432;28;2113;-71
2022/04/22 11:32:43;;;;;;;;;;;;;;;;;;4950361;28;1828;-70
2022/04/22 11:35:14;;;;;;;;;;;;;;;;;;4967599;28;1749;-72
2022/04/22 11:37:40;;;;;;;;;;;;;;;;;;4969189;28;1926;-71
2022/04/22 11:40:09;;;;;;;;;;;;;;;;;;4974435;28;2076;-69
2022/04/22 11:42:38;;;;;;;;;;;;;;;;;;4969384;28;1862;-71
2022/04/22 11:45:05;;;;;;;;;;;;;;;;;;4959230;28;1854;-73
2022/04/22 11:47:31;;;;;;;;;;;;;;;;;;4973696;28;2244;-70
2022/04/22 11:49:58;;;;;;;;;;;;;;;;;;4950355;28;2236;-71
2022/04/22 11:52:25;;;;;;;;;;;;;;;;;;4985421;28;1970;-70
2022/04/22 11:54:51;;;;;;;;;;;;;;;;;;4963357;28;1802;-71
2022/04/22 11:57:19;;;;;;;;;;;;;;;;;;4966011;28;2026;-71
2022/04/22 12:05:32;;;;;;;;;;;;;;;;;;4964247;28;2053;-72
2022/04/22 12:05:34;;;;;;;;;;;;;;;;;;4970138;28;1970;-71
2022/04/22 12:08:05;;;;;;;;;;;;;;;;;;4973023;28;1969;-72
2022/04/22 12:10:31;;;;;;;;;;;;;;;;;;4967437;28;1984;-71
2022/04/22 12:13:00;;;;;;;;;;;;;;;;;;4967862;28;1823;-72
2022/04/22 12:15:27;;;;;;;;;;;;;;;;;;4961357;28;2029;-71
2022/04/22 12:17:53;;;;;;;;;;;;;;;;;;4966369;28;1711;-72
2022/04/22 12:20:20;;;;;;;;;;;;;;;;;;4966922;28;1997;-73
2022/04/22 12:22:48;;;;;;;;;;;;;;;;;;4967336;28;1946;-70
2022/04/22 12:25:14;;;;;;;;;;;;;;;;;;4960484;28;2061;-71
2022/04/22 12:27:42;;;;;;;;;;;;;;;;;;4966421;28;1927;-72
2022/04/22 12:30:10;;;;;;;;;;;;;;;;;;4966155;28;1975;-71
2022/04/22 12:32:37;;;;;;;;;;;;;;;;;;4966482;28;1779;-69
2022/04/22 12:35:09;;;;;;;;;;;;;;;;;;4967141;28;1783;-72
2022/04/22 12:37:36;;;;;;;;;;;;;;;;;;4961494;28;1991;-72
2022/04/22 12:40:07;;;;;;;;;;;;;;;;;;4965304;28;2201;-72
2022/04/22 12:42:35;;;;;;;;;;;;;;;;;;4966238;28;1947;-71
2022/04/22 12:53:33;;;;;;;;;;;;;;;;;;4966172;28;2101;-69
2022/04/22 12:55:59;;;;;;;;;;;;;;;;;;4965690;28;1946;-74
2022/04/22 12:58:26;;;;;;;;;;;;;;;;;;4948467;28;2054;-71
2022/04/22 13:00:54;;;;;;;;;;;;;;;;;;4969264;28;2165;-71
2022/04/22 13:03:21;;;;;;;;;;;;;;;;;;4996782;28;2037;-71
2022/04/22 13:05:47;;;;;;;;;;;;;;;;;;4967541;28;1704;-71
2022/04/22 13:08:15;;;;;;;;;;;;;;;;;;4965248;28;2041;-72
2022/04/22 13:10:41;;;;;;;;;;;;;;;;;;4949750;28;1927;-72
2022/04/22 13:13:07;;;;;;;;;;;;;;;;;;4966101;28;1734;-72
2022/04/22 13:15:34;;;;;;;;;;;;;;;;;;4965676;28;2089;-71
2022/04/22 13:18:01;;;;;;;;;;;;;;;;;;4965616;28;2194;-70
2022/04/22 13:20:27;;;;;;;;;;;;;;;;;;4964204;28;2077;-72
2022/04/22 13:22:56;;;;;;;;;;;;;;;;;;4966629;28;1760;-71
2022/04/22 13:25:23;;;;;;;;;;;;;;;;;;4967611;28;1997;-70
2022/04/22 13:27:49;;;;;;;;;;;;;;;;;;4969253;28;1991;-69
2022/04/22 13:30:15;;;;;;;;;;;;;;;;;;4972852;28;2326;-71
2022/04/22 13:32:42;;;;;;;;;;;;;;;;;;4969187;28;1823;-71
2022/04/22 13:35:10;;;;;;;;;;;;;;;;;;4966738;28;2069;-71
2022/04/22 13:37:36;;;;;;;;;;;;;;;;;;4968196;28;1770;-71
2022/04/22 13:40:03;;;;;;;;;;;;;;;;;;4970378;28;1528;-71
2022/04/22 13:42:29;;;;;;;;;;;;;;;;;;4970969;28;1997;-71
2022/04/22 13:53:08;;;;;;;;;;;;;;;;;;5052492;28;985;-72
2022/04/22 13:55:36;;;;;;;;;;;;;;;;;;5052822;28;894;-69
2022/04/22 13:58:02;;;;;;;;;;;;;;;;;;5052281;28;1293;-71
2022/04/22 14:00:28;;;;;;;;;;;;;;;;;;5034932;28;1182;-71
2022/04/22 14:02:55;;;;;;;;;;;;;;;;;;5052837;28;858;-72
2022/04/22 14:05:22;;;;;;;;;;;;;;;;;;5052970;28;1139;-72
2022/04/22 14:07:49;;;;;;;;;;;;;;;;;;5052196;28;1322;-72
2022/04/22 14:10:16;;;;;;;;;;;;;;;;;;5052563;28;1891;-71
2022/04/22 14:12:42;;;;;;;;;;;;;;;;;;5052900;28;845;-71
2022/04/22 14:15:09;;;;;;;;;;;;;;;;;;5053446;28;842;-70
2022/04/22 14:17:35;;;;;;;;;;;;;;;;;;5052072;28;1605;-71
2022/04/22 14:20:02;;;;;;;;;;;;;;;;;;5052686;28;1121;-72
2022/04/22 14:22:29;;;;;;;;;;;;;;;;;;5054321;28;1083;-71
2022/04/22 14:24:57;;;;;;;;;;;;;;;;;;5054567;28;1166;-68
2022/04/22 14:27:23;;;;;;;;;;;;;;;;;;5052335;28;1374;-69
2022/04/22 14:29:50;;;;;;;;;;;;;;;;;;5052091;28;1914;-70
2022/04/22 14:32:16;;;;;;;;;;;;;;;;;;5052658;28;841;-70
2022/04/22 14:34:42;;;;;;;;;;;;;;;;;;5052071;28;948;-70
2022/04/22 14:37:08;;;;;;;;;;;;;;;;;;5051011;28;1294;-69
2022/04/22 14:39:35;;;;;;;;;;;;;;;;;;5051731;28;996;-71
2022/04/22 14:42:02;;;;;;;;;;;;;;;;;;5050117;28;2269;-70
2022/04/22 14:44:29;;;;;;;;;;;;;;;;;;5052013;28;1100;-70
2022/04/22 14:46:55;;;;;;;;;;;;;;;;;;5051494;28;1400;-70
2022/04/22 14:49:21;;;;;;;;;;;;;;;;;;5051133;28;1975;-70
2022/04/22 14:51:48;;;;;;;;;;;;;;;;;;5052005;28;1142;-70
2022/04/22 14:54:14;;;;;;;;;;;;;;;;;;5052540;28;1099;-71
2022/04/22 14:56:41;;;;;;;;;;;;;;;;;;5051910;28;1286;-71
2022/04/22 14:59:10;;;;;;;;;;;;;;;;;;5052011;28;988;-73
2022/04/22 15:01:36;;;;;;;;;;;;;;;;;;5052117;28;790;-71
2022/04/22 15:04:03;;;;;;;;;;;;;;;;;;5051937;28;1071;-71
2022/04/22 15:06:29;;;;;;;;;;;;;;;;;;5051476;28;1449;-69
2022/04/22 15:08:55;;;;;;;;;;;;;;;;;;5033603;28;1172;-71
2022/04/22 15:11:21;;;;;;;;;;;;;;;;;;5051763;28;1914;-71
2022/04/22 15:13:48;;;;;;;;;;;;;;;;;;5051440;28;925;-71
2022/04/22 15:16:16;;;;;;;;;;;;;;;;;;5051313;28;1309;-70
2022/04/22 15:24:10;;;;;;;;;;;;;;;;;;5051518;28;1009;-71
2022/04/22 15:26:36;;;;;;;;;;;;;;;;;;5032575;28;1488;-70
2022/04/22 15:29:04;;;;;;;;;;;;;;;;;;5050891;28;1126;-71
2022/04/22 15:31:31;;;;;;;;;;;;;;;;;;5051118;28;1914;-71
2022/04/22 15:33:57;;;;;;;;;;;;;;;;;;5050860;28;791;-71
2022/04/22 15:36:24;;;;;;;;;;;;;;;;;;5051210;28;1389;-70
2022/04/22 15:38:51;;;;;;;;;;;;;;;;;;5050583;28;942;-71
2022/04/22 15:41:18;;;;;;;;;;;;;;;;;;5051079;28;778;-71
2022/04/22 15:43:45;;;;;;;;;;;;;;;;;;5050976;28;945;-71
2022/04/22 15:46:12;;;;;;;;;;;;;;;;;;5050710;28;1372;-71
2022/04/22 15:48:39;;;;;;;;;;;;;;;;;;5050678;28;854;-72
2022/04/22 15:51:06;;;;;;;;;;;;;;;;;;5050983;28;1925;-72
2022/04/22 15:53:33;;;;;;;;;;;;;;;;;;5051629;28;1076;-71
2022/04/22 15:55:59;;;;;;;;;;;;;;;;;;5046780;28;1995;-71
2022/04/22 15:58:25;;;;;;;;;;;;;;;;;;5050387;28;1501;-71
2022/04/22 16:00:51;;;;;;;;;;;;;;;;;;5033220;28;1175;-71
2022/04/22 16:03:18;;;;;;;;;;;;;;;;;;5033342;28;1338;-73
2022/04/22 16:05:45;;;;;;;;;;;;;;;;;;5051244;28;1200;-72
2022/04/22 16:08:13;;;;;;;;;;;;;;;;;;5049644;28;1402;-71
2022/04/22 16:10:39;;;;;;;;;;;;;;;;;;5049512;28;1910;-69
2022/04/22 16:15:49;;;;;;;;;;;;;;;;;;5049568;28;1042;-71
2022/04/22 16:18:16;;;;;;;;;;;;;;;;;;5049084;28;1337;-70
2022/04/22 16:20:42;;;;;;;;;;;;;;;;;;5049486;28;679;-71
2022/04/22 16:23:10;;;;;;;;;;;;;;;;;;5047211;28;937;-70
2022/04/22 16:25:36;;;;;;;;;;;;;;;;;;5031280;28;1261;-71
2022/04/22 16:28:03;;;;;;;;;;;;;;;;;;5048871;28;1377;-71
2022/04/22 16:30:31;;;;;;;;;;;;;;;;;;5031216;28;1910;-72
2022/04/22 16:32:57;;;;;;;;;;;;;;;;;;5049477;28;1123;-70
2022/04/22 16:35:24;;;;;;;;;;;;;;;;;;5050349;28;1095;-72
2022/04/22 16:37:50;;;;;;;;;;;;;;;;;;5049391;28;1401;-71
2022/04/22 16:40:18;;;;;;;;;;;;;;;;;;5050689;28;782;-71
2022/04/22 16:42:44;;;;;;;;;;;;;;;;;;5051145;28;775;-71
2022/04/22 16:45:12;;;;;;;;;;;;;;;;;;5051217;28;783;-70
2022/04/22 16:47:38;;;;;;;;;;;;;;;;;;5050698;28;1383;-69
2022/04/22 16:50:05;;;;;;;;;;;;;;;;;;5050692;28;1969;-70
2022/04/22 16:52:31;;;;;;;;;;;;;;;;;;5049555;28;1548;-71
2022/04/22 16:54:57;;;;;;;;;;;;;;;;;;5050795;28;1154;-70
2022/04/22 16:57:26;;;;;;;;;;;;;;;;;;5050531;28;1331;-70
2022/04/22 16:59:52;;;;;;;;;;;;;;;;;;5053138;28;1122;-71
2022/04/22 17:02:19;;;;;;;;;;;;;;;;;;5054721;28;1072;-70
2022/04/22 17:04:47;;;;;;;;;;;;;;;;;;5054874;28;921;-69
2022/04/22 17:07:14;;;;;;;;;;;;;;;;;;5035752;28;1615;-70
2022/04/22 17:09:40;;;;;;;;;;;;;;;;;;5036208;28;1472;-71
2022/04/22 17:12:06;;;;;;;;;;;;;;;;;;5055729;28;1318;-70
2022/04/22 17:22:45;;;;;;;;;;;;;;;;;;5059874;28;1321;-71
2022/04/22 17:25:12;;;;;;;;;;;;;;;;;;5054078;28;1381;-71
2022/04/22 17:27:39;;;;;;;;;;;;;;;;;;5049478;28;2244;-72
2022/04/22 17:30:08;;;;;;;;;;;;;;;;;;5051840;28;1926;-69
2022/04/22 17:32:34;;;;;;;;;;;;;;;;;;5056254;28;1438;-71
2022/04/22 17:35:00;;;;;;;;;;;;;;;;;;5044993;28;1367;-70
2022/04/22 17:37:26;;;;;;;;;;;;;;;;;;5063725;28;1289;-72
2022/04/22 17:39:52;;;;;;;;;;;;;;;;;;5065296;28;1416;-71
2022/04/22 17:42:18;;;;;;;;;;;;;;;;;;5063615;28;1269;-73
2022/04/22 17:44:45;;;;;;;;;;;;;;;;;;5066533;28;1482;-69
2022/04/22 17:47:15;;;;;;;;;;;;;;;;;;5062639;28;1314;-70
2022/04/22 17:49:41;;;;;;;;;;;;;;;;;;5062703;28;1471;-71
2022/04/22 17:52:08;;;;;;;;;;;;;;;;;;5061084;28;1922;-70
2022/04/22 17:54:34;;;;;;;;;;;;;;;;;;5057674;28;1360;-70
2022/04/22 17:57:01;;;;;;;;;;;;;;;;;;5031512;28;1442;-70
2022/04/22 17:59:27;;;;;;;;;;;;;;;;;;5066666;28;1392;-71
2022/04/22 18:01:53;;;;;;;;;;;;;;;;;;5060584;28;1107;-70
2022/04/22 18:04:21;;;;;;;;;;;;;;;;;;5065239;28;1432;-70
2022/04/22 18:06:47;;;;;;;;;;;;;;;;;;5064890;28;1373;-69
2022/04/22 18:09:13;;;;;;;;;;;;;;;;;;5065411;28;1059;-70
2022/04/22 18:11:40;;;;;;;;;;;;;;;;;;5060158;28;1977;-70
2022/04/22 18:16:12;;;;;;;;;;;;;;;;;;5072326;28;1181;-69
2022/04/22 18:16:52;;;;;;;;;;;;;;;;;;5060004;28;1394;-70
2022/04/22 18:19:18;;;;;;;;;;;;;;;;;;5071268;28;971;-70
2022/04/22 18:21:46;;;;;;;;;;;;;;;;;;5054878;28;1388;-70
2022/04/22 18:24:13;;;;;;;;;;;;;;;;;;5057068;28;1383;-71
2022/04/22 18:26:39;;;;;;;;;;;;;;;;;;5054335;28;1428;-70
2022/04/22 18:29:05;;;;;;;;;;;;;;;;;;5061374;28;1582;-70
2022/04/22 18:31:31;;;;;;;;;;;;;;;;;;5056200;28;2677;-70
2022/04/22 18:33:57;;;;;;;;;;;;;;;;;;5050302;28;1402;-70
2022/04/22 18:36:24;;;;;;;;;;;;;;;;;;5065947;28;1329;-70